createdAt,value
2018-12-15T00:00:34.630Z,77.78
2018-12-15T00:03:04.108Z,77.53
2018-12-15T00:05:33.887Z,77.38
2018-12-15T00:08:03.487Z,77.93
2018-12-15T00:10:33.078Z,77.52
2018-12-15T00:13:02.668Z,77.36
2018-12-15T00:15:32.424Z,77.64
2018-12-15T00:18:02.443Z,77.10
2018-12-15T00:20:32.129Z,77.65
2018-12-15T00:23:01.731Z,77.19
2018-12-15T00:25:31.353Z,77.26
2018-12-15T00:28:00.996Z,77.60
2018-12-15T00:30:30.778Z,77.16
2018-12-15T00:33:00.271Z,77.30
2018-12-15T00:35:29.765Z,77.41
2018-12-15T00:37:59.371Z,77.34
2018-12-15T00:40:29.096Z,77.53
2018-12-15T00:42:58.992Z,77.24
2018-12-15T00:45:28.600Z,77.47
2018-12-15T00:47:58.329Z,77.90
2018-12-15T00:50:27.663Z,77.67
2018-12-15T00:52:57.239Z,77.54
2018-12-15T00:55:26.751Z,77.33
2018-12-15T00:57:56.392Z,77.07
2018-12-15T01:00:25.959Z,77.83
2018-12-15T01:02:55.904Z,77.24
2018-12-15T01:05:25.276Z,77.38
2018-12-15T01:07:55.230Z,77.72
2018-12-15T01:10:27.039Z,77.06
2018-12-15T01:12:56.887Z,77.73
2018-12-15T01:15:33.368Z,77.99
2018-12-15T01:18:03.091Z,77.69
2018-12-15T01:20:32.855Z,78.02
2018-12-15T01:23:02.343Z,77.37
2018-12-15T01:25:31.843Z,77.53
2018-12-15T01:28:01.485Z,77.30
2018-12-15T01:30:31.351Z,77.58
2018-12-15T01:33:01.207Z,77.58
2018-12-15T01:35:31.596Z,77.67
2018-12-15T01:38:01.147Z,78.18
2018-12-15T01:40:30.659Z,77.71
2018-12-15T01:43:00.696Z,78.14
2018-12-15T01:45:30.171Z,78.11
2018-12-15T01:47:59.775Z,78.31
2018-12-15T01:50:29.215Z,78.15
2018-12-15T01:52:58.914Z,78.53
2018-12-15T01:55:28.744Z,78.67
2018-12-15T01:57:58.207Z,78.30
2018-12-15T02:00:27.499Z,79.00
2018-12-15T02:02:57.217Z,78.71
2018-12-15T02:05:26.507Z,77.98
2018-12-15T02:07:56.525Z,78.48
2018-12-15T02:10:25.872Z,78.04
2018-12-15T02:12:55.264Z,78.50
2018-12-15T02:15:24.676Z,79.33
2018-12-15T02:17:54.060Z,78.92
2018-12-15T02:20:23.775Z,78.74
2018-12-15T02:22:53.479Z,79.64
2018-12-15T02:25:22.995Z,79.12
2018-12-15T02:27:52.688Z,79.50
2018-12-15T02:30:22.393Z,79.60
2018-12-15T02:32:52.024Z,79.51
2018-12-15T02:35:21.712Z,79.63
2018-12-15T02:37:51.425Z,79.00
2018-12-15T02:40:21.026Z,78.80
2018-12-15T02:42:50.329Z,79.09
2018-12-15T02:45:20.733Z,78.56
2018-12-15T02:47:50.469Z,78.76
2018-12-15T02:50:20.208Z,78.42
2018-12-15T02:52:49.657Z,78.58
2018-12-15T02:55:19.338Z,78.42
2018-12-15T02:57:48.871Z,78.63
2018-12-15T03:00:18.506Z,79.22
2018-12-15T03:02:48.397Z,78.87
2018-12-15T03:05:17.823Z,79.31
2018-12-15T03:07:47.179Z,78.82
2018-12-15T03:10:16.919Z,78.89
2018-12-15T03:12:46.245Z,79.05
2018-12-15T03:15:15.987Z,78.79
2018-12-15T03:17:48.830Z,78.99
2018-12-15T03:20:15.386Z,79.52
2018-12-15T03:22:45.430Z,78.73
2018-12-15T03:25:15.720Z,79.11
2018-12-15T03:27:45.451Z,79.61
2018-12-15T03:30:15.169Z,78.54
2018-12-15T03:32:44.624Z,79.53
2018-12-15T03:35:14.392Z,79.13
2018-12-15T03:37:44.075Z,78.71
2018-12-15T03:40:13.773Z,79.00
2018-12-15T03:42:43.177Z,79.22
2018-12-15T03:45:12.790Z,78.97
2018-12-15T03:47:42.698Z,79.05
2018-12-15T03:50:12.445Z,79.08
2018-12-15T03:52:42.180Z,79.43
2018-12-15T03:55:11.632Z,79.57
2018-12-15T03:57:41.141Z,78.81
2018-12-15T04:00:10.972Z,78.74
2018-12-15T04:02:40.392Z,79.19
2018-12-15T04:05:09.854Z,79.44
2018-12-15T04:07:39.468Z,79.24
2018-12-15T04:10:09.081Z,79.12
2018-12-15T04:12:38.563Z,79.89
2018-12-15T04:15:08.124Z,79.27
2018-12-15T04:17:37.593Z,79.48
2018-12-15T04:20:07.253Z,79.71
2018-12-15T04:22:36.809Z,79.49
2018-12-15T04:25:06.535Z,78.93
2018-12-15T04:27:36.160Z,79.38
2018-12-15T04:30:07.317Z,79.00
2018-12-15T04:32:36.997Z,79.59
2018-12-15T04:35:06.523Z,78.97
2018-12-15T04:37:36.190Z,78.91
2018-12-15T04:40:06.580Z,79.65
2018-12-15T04:42:36.492Z,79.66
2018-12-15T04:45:06.434Z,79.50
2018-12-15T04:47:36.172Z,80.29
2018-12-15T04:50:05.904Z,80.28
2018-12-15T04:52:35.343Z,80.02
2018-12-15T04:55:05.395Z,79.54
2018-12-15T04:57:35.649Z,80.20
2018-12-15T05:00:05.400Z,80.21
2018-12-15T05:02:34.963Z,80.54
2018-12-15T05:05:04.677Z,80.56
2018-12-15T05:07:34.904Z,80.16
2018-12-15T05:10:04.684Z,80.29
2018-12-15T05:12:34.095Z,80.22
2018-12-15T05:15:03.759Z,79.83
2018-12-15T05:17:33.413Z,79.91
2018-12-15T05:20:03.560Z,80.56
2018-12-15T05:22:32.896Z,80.12
2018-12-15T05:25:02.412Z,80.08
2018-12-15T05:27:32.069Z,80.33
2018-12-15T05:30:01.762Z,79.73
2018-12-15T05:32:31.496Z,80.31
2018-12-15T05:35:01.082Z,80.12
2018-12-15T05:37:30.794Z,80.21
2018-12-15T05:40:00.571Z,80.87
2018-12-15T05:42:29.893Z,80.90
2018-12-15T05:44:59.556Z,81.22
2018-12-15T05:47:29.120Z,80.71
2018-12-15T05:49:58.771Z,79.90
2018-12-15T05:52:28.541Z,79.86
2018-12-15T05:54:58.267Z,79.86
2018-12-15T05:57:28.021Z,79.85
2018-12-15T05:59:57.471Z,79.96
2018-12-15T06:02:26.932Z,80.07
2018-12-15T06:04:56.598Z,79.92
2018-12-15T06:07:25.928Z,80.09
2018-12-15T06:09:56.367Z,79.80
2018-12-15T06:12:25.672Z,79.50
2018-12-15T06:14:55.129Z,79.97
2018-12-15T06:17:24.540Z,79.81
2018-12-15T06:19:54.108Z,79.84
2018-12-15T06:22:23.670Z,79.74
2018-12-15T06:24:53.180Z,80.58
2018-12-15T06:27:22.663Z,80.18
2018-12-15T06:29:52.372Z,80.65
2018-12-15T06:32:21.710Z,79.91
2018-12-15T06:34:51.210Z,79.82
2018-12-15T06:37:21.016Z,80.00
2018-12-15T06:39:50.539Z,79.96
2018-12-15T06:42:19.828Z,80.19
2018-12-15T06:44:49.176Z,79.53
2018-12-15T06:47:19.101Z,79.92
2018-12-15T06:49:48.727Z,79.32
2018-12-15T06:52:18.457Z,79.38
2018-12-15T06:54:48.214Z,79.15
2018-12-15T06:57:17.939Z,79.55
2018-12-15T06:59:48.445Z,79.16
2018-12-15T07:02:18.086Z,78.82
2018-12-15T07:04:47.787Z,78.68
2018-12-15T07:07:17.520Z,79.16
2018-12-15T07:09:47.125Z,80.35
2018-12-15T07:12:17.159Z,79.66
2018-12-15T07:14:46.834Z,79.57
2018-12-15T07:17:16.340Z,79.09
2018-12-15T07:19:46.179Z,77.85
2018-12-15T07:22:15.976Z,78.43
2018-12-15T07:24:45.594Z,79.06
2018-12-15T07:27:15.406Z,79.33
2018-12-15T07:29:45.003Z,78.81
2018-12-15T07:32:14.738Z,78.52
2018-12-15T07:34:45.457Z,79.16
2018-12-15T07:37:15.056Z,79.85
2018-12-15T07:39:44.535Z,79.35
2018-12-15T07:42:14.211Z,78.96
2018-12-15T07:44:43.804Z,78.83
2018-12-15T07:47:13.653Z,79.22
2018-12-15T07:49:43.299Z,78.19
2018-12-15T07:52:13.082Z,78.33
2018-12-15T07:54:43.060Z,78.62
2018-12-15T07:57:12.898Z,78.32
2018-12-15T07:59:42.405Z,78.41
2018-12-15T08:02:12.402Z,78.00
2018-12-15T08:04:42.074Z,78.12
2018-12-15T08:07:12.027Z,77.98
2018-12-15T08:09:42.082Z,78.77
2018-12-15T08:12:44.547Z,78.04
2018-12-15T08:15:14.477Z,77.70
2018-12-15T08:17:44.217Z,78.27
2018-12-15T08:20:13.821Z,78.09
2018-12-15T08:22:43.540Z,77.03
2018-12-15T08:25:13.153Z,76.95
2018-12-15T08:27:42.864Z,76.32
2018-12-15T08:30:12.484Z,76.63
2018-12-15T08:32:42.018Z,75.83
2018-12-15T08:35:11.604Z,76.22
2018-12-15T08:37:41.076Z,75.48
2018-12-15T08:40:10.815Z,74.63
2018-12-15T08:42:40.196Z,74.93
2018-12-15T08:45:10.047Z,74.91
2018-12-15T08:47:39.377Z,74.73
2018-12-15T08:50:09.179Z,75.44
2018-12-15T08:52:38.822Z,74.54
2018-12-15T08:55:08.444Z,73.72
2018-12-15T08:57:38.061Z,74.06
2018-12-15T09:00:07.864Z,74.19
2018-12-15T09:02:37.843Z,75.62
2018-12-15T09:05:07.737Z,75.71
2018-12-15T09:07:37.053Z,73.57
2018-12-15T09:10:06.702Z,72.71
2018-12-15T09:12:36.316Z,72.70
2018-12-15T09:15:06.307Z,72.36
2018-12-15T09:17:35.846Z,73.07
2018-12-15T09:20:05.964Z,72.89
2018-12-15T09:22:35.804Z,73.08
2018-12-15T09:25:05.285Z,74.39
2018-12-15T09:27:34.881Z,74.70
2018-12-15T09:30:04.984Z,74.05
2018-12-15T09:32:34.563Z,73.55
2018-12-15T09:35:04.192Z,73.17
2018-12-15T09:37:34.052Z,73.33
2018-12-15T09:40:03.508Z,72.80
2018-12-15T09:42:33.463Z,73.52
2018-12-15T09:45:03.228Z,72.71
2018-12-15T09:47:32.871Z,72.73
2018-12-15T09:50:02.478Z,73.11
2018-12-15T09:52:31.900Z,73.54
2018-12-15T09:55:01.511Z,73.60
2018-12-15T09:57:31.240Z,72.81
2018-12-15T10:00:00.821Z,73.44
2018-12-15T10:02:30.225Z,73.58
2018-12-15T10:05:00.089Z,74.19
2018-12-15T10:07:29.630Z,73.35
2018-12-15T10:09:59.139Z,73.51
2018-12-15T10:12:29.110Z,73.59
2018-12-15T10:14:58.625Z,73.85
2018-12-15T10:17:28.347Z,74.77
2018-12-15T10:19:58.143Z,74.77
2018-12-15T10:22:27.606Z,74.13
2018-12-15T10:24:57.376Z,74.20
2018-12-15T10:27:26.848Z,73.67
2018-12-15T10:30:01.514Z,73.53
2018-12-15T10:32:36.340Z,73.57
2018-12-15T10:35:06.096Z,73.62
2018-12-15T10:37:36.074Z,73.06
2018-12-15T10:40:09.490Z,73.59
2018-12-15T10:42:38.937Z,74.18
2018-12-15T10:45:08.753Z,74.01
2018-12-15T10:47:38.319Z,73.87
2018-12-15T10:50:09.178Z,73.67
2018-12-15T10:52:38.685Z,74.01
2018-12-15T10:55:09.698Z,74.06
2018-12-15T10:57:39.331Z,73.92
2018-12-15T11:00:15.809Z,73.94
2018-12-15T11:02:45.402Z,74.48
2018-12-15T11:05:15.099Z,74.08
2018-12-15T11:07:44.981Z,73.96
2018-12-15T11:10:14.704Z,74.53
2018-12-15T11:12:44.464Z,74.10
2018-12-15T11:15:14.387Z,74.36
2018-12-15T11:17:43.839Z,73.94
2018-12-15T11:20:13.627Z,75.02
2018-12-15T11:22:43.443Z,74.86
2018-12-15T11:25:12.867Z,73.92
2018-12-15T11:27:42.332Z,74.26
2018-12-15T11:30:12.039Z,74.48
2018-12-15T11:32:41.749Z,74.09
2018-12-15T11:35:11.295Z,74.99
2018-12-15T11:37:41.184Z,74.68
2018-12-15T11:40:11.048Z,73.68
2018-12-15T11:42:40.693Z,74.08
2018-12-15T11:45:10.826Z,75.63
2018-12-15T11:47:40.400Z,75.10
2018-12-15T11:50:10.057Z,74.47
2018-12-15T11:52:39.679Z,73.64
2018-12-15T11:55:09.236Z,73.74
2018-12-15T11:57:40.098Z,73.73
2018-12-15T12:00:10.843Z,73.99
2018-12-15T12:02:40.608Z,73.20
2018-12-15T12:05:10.562Z,73.16
2018-12-15T12:07:43.114Z,73.19
2018-12-15T12:10:12.848Z,72.96
2018-12-15T12:12:42.552Z,73.08
2018-12-15T12:15:12.633Z,73.18
2018-12-15T12:17:42.291Z,73.01
2018-12-15T12:20:11.877Z,73.16
2018-12-15T12:22:41.537Z,73.23
2018-12-15T12:25:11.163Z,73.13
2018-12-15T12:27:40.877Z,73.18
2018-12-15T12:30:10.379Z,73.66
2018-12-15T12:32:40.083Z,74.01
2018-12-15T12:35:09.615Z,73.86
2018-12-15T12:37:39.367Z,73.93
2018-12-15T12:40:09.302Z,73.74
2018-12-15T12:42:39.038Z,73.65
2018-12-15T12:45:08.784Z,72.95
2018-12-15T12:47:38.710Z,73.43
2018-12-15T12:50:08.528Z,73.86
2018-12-15T12:52:38.524Z,73.43
2018-12-15T12:55:08.348Z,73.87
2018-12-15T12:57:37.822Z,73.25
2018-12-15T13:00:07.350Z,73.54
2018-12-15T13:02:36.991Z,73.73
2018-12-15T13:05:07.254Z,73.35
2018-12-15T13:07:36.741Z,73.72
2018-12-15T13:10:06.470Z,72.62
2018-12-15T13:12:35.851Z,72.22
2018-12-15T13:15:05.771Z,72.54
2018-12-15T13:17:35.568Z,72.78
2018-12-15T13:20:05.856Z,72.78
2018-12-15T13:22:35.541Z,73.59
2018-12-15T13:25:05.615Z,73.77
2018-12-15T13:27:35.306Z,73.86
2018-12-15T13:30:05.763Z,74.65
2018-12-15T13:32:35.914Z,74.20
2018-12-15T13:35:05.683Z,74.65
2018-12-15T13:37:35.042Z,74.40
2018-12-15T13:40:04.828Z,75.41
2018-12-15T13:42:34.679Z,74.98
2018-12-15T13:45:04.429Z,74.68
2018-12-15T13:47:34.442Z,75.45
2018-12-15T13:50:09.942Z,75.19
2018-12-15T13:52:34.072Z,74.81
2018-12-15T13:55:03.860Z,75.31
2018-12-15T13:57:33.643Z,74.89
2018-12-15T14:00:03.402Z,74.64
2018-12-15T14:02:33.289Z,75.22
2018-12-15T14:05:02.911Z,74.97
2018-12-15T14:07:32.548Z,75.25
2018-12-15T14:10:02.535Z,74.83
2018-12-15T14:12:31.992Z,74.96
2018-12-15T14:15:01.699Z,74.95
2018-12-15T14:17:31.363Z,74.49
2018-12-15T14:20:00.833Z,74.50
2018-12-15T14:22:30.232Z,74.79
2018-12-15T14:27:23.540Z,74.93
2018-12-15T14:29:53.030Z,75.26
2018-12-15T14:32:22.536Z,75.35
2018-12-15T14:34:52.200Z,75.63
2018-12-15T14:37:21.948Z,75.27
2018-12-15T14:39:51.767Z,75.86
2018-12-15T14:42:21.353Z,75.58
2018-12-15T14:44:50.650Z,75.88
2018-12-15T14:47:20.452Z,75.69
2018-12-15T14:49:50.184Z,75.41
2018-12-15T14:52:19.754Z,75.65
2018-12-15T14:54:49.237Z,75.86
2018-12-15T14:57:23.045Z,76.41
2018-12-15T14:59:52.720Z,76.87
2018-12-15T15:02:22.234Z,76.70
2018-12-15T15:04:51.700Z,77.01
2018-12-15T15:07:21.267Z,77.01
2018-12-15T15:09:50.987Z,77.01
2018-12-15T15:12:20.758Z,77.43
2018-12-15T15:14:50.480Z,77.25
2018-12-15T15:17:19.981Z,77.17
2018-12-15T15:19:49.584Z,77.87
2018-12-15T15:22:19.899Z,77.41
2018-12-15T15:24:49.379Z,76.91
2018-12-15T15:27:19.125Z,77.75
2018-12-15T15:29:48.722Z,77.41
2018-12-15T15:32:18.144Z,77.61
2018-12-15T15:34:47.773Z,77.59
2018-12-15T15:37:18.407Z,77.67
2018-12-15T15:39:47.991Z,78.54
2018-12-15T15:42:17.588Z,78.15
2018-12-15T15:44:47.331Z,78.07
2018-12-15T15:47:16.812Z,78.09
2018-12-15T15:49:46.307Z,77.85
2018-12-15T15:52:16.271Z,77.73
2018-12-15T15:54:45.975Z,79.02
2018-12-15T15:57:15.679Z,78.12
2018-12-15T15:59:45.380Z,79.00
2018-12-15T16:02:14.766Z,79.46
2018-12-15T16:04:44.706Z,79.06
2018-12-15T16:07:14.192Z,79.50
2018-12-15T16:09:45.127Z,79.13
2018-12-15T16:12:13.767Z,79.06
2018-12-15T16:14:43.423Z,78.39
2018-12-15T16:17:13.019Z,78.83
2018-12-15T16:19:42.534Z,78.63
2018-12-15T16:22:12.122Z,78.88
2018-12-15T16:24:41.905Z,78.49
2018-12-15T16:27:11.511Z,79.21
2018-12-15T16:29:41.247Z,79.29
2018-12-15T16:32:10.789Z,79.40
2018-12-15T16:34:40.244Z,78.80
2018-12-15T16:37:09.559Z,78.99
2018-12-15T16:39:39.442Z,80.11
2018-12-15T16:42:09.049Z,80.62
2018-12-15T16:44:38.528Z,80.07
2018-12-15T16:47:08.196Z,79.89
2018-12-15T16:49:37.912Z,79.16
2018-12-15T16:52:07.329Z,79.65
2018-12-15T16:54:37.285Z,79.46
2018-12-15T16:57:06.976Z,78.82
2018-12-15T16:59:36.593Z,80.62
2018-12-15T17:02:06.155Z,79.82
2018-12-15T17:04:35.742Z,78.37
2018-12-15T17:07:05.734Z,78.20
2018-12-15T17:09:35.598Z,78.97
2018-12-15T17:12:05.341Z,79.06
2018-12-15T17:14:35.246Z,79.95
2018-12-15T17:17:04.755Z,77.28
2018-12-15T17:19:34.360Z,76.75
2018-12-15T17:22:04.241Z,77.29
2018-12-15T17:24:33.878Z,77.13
2018-12-15T17:27:03.411Z,77.91
2018-12-15T17:29:34.228Z,78.07
2018-12-15T17:32:03.996Z,77.87
2018-12-15T17:34:33.656Z,78.45
2018-12-15T17:37:03.489Z,78.91
2018-12-15T17:39:39.578Z,78.41
2018-12-15T17:42:09.411Z,79.33
2018-12-15T17:44:39.052Z,78.37
2018-12-15T17:47:08.664Z,79.37
2018-12-15T17:49:38.388Z,79.50
2018-12-15T17:52:07.962Z,79.95
2018-12-15T17:54:38.028Z,79.95
2018-12-15T17:57:07.608Z,78.94
2018-12-15T17:59:37.224Z,79.02
2018-12-15T18:02:06.868Z,80.28
2018-12-15T18:04:36.512Z,79.89
2018-12-15T18:07:06.446Z,79.53
2018-12-15T18:09:36.028Z,80.24
2018-12-15T18:12:05.684Z,80.47
2018-12-15T18:14:35.470Z,79.81
2018-12-15T18:17:05.048Z,79.80
2018-12-15T18:19:34.655Z,80.07
2018-12-15T18:22:04.295Z,80.04
2018-12-15T18:24:33.742Z,79.83
2018-12-15T18:27:03.236Z,80.33
2018-12-15T18:29:32.810Z,80.08
2018-12-15T18:32:02.414Z,80.84
2018-12-15T18:34:31.947Z,81.13
2018-12-15T18:37:02.169Z,80.89
2018-12-15T18:39:31.455Z,80.22
2018-12-15T18:42:01.090Z,80.29
2018-12-15T18:44:30.474Z,81.06
2018-12-15T18:46:59.837Z,80.68
2018-12-15T18:49:30.456Z,80.83
2018-12-15T18:51:59.180Z,80.94
2018-12-15T18:54:28.994Z,80.30
2018-12-15T18:56:58.687Z,81.06
2018-12-15T18:59:28.260Z,80.59
2018-12-15T19:01:57.965Z,80.90
2018-12-15T19:04:27.439Z,80.86
2018-12-15T19:06:57.056Z,80.79
2018-12-15T19:09:27.936Z,80.52
2018-12-15T19:11:57.609Z,80.75
2018-12-15T19:14:26.999Z,80.86
2018-12-15T19:16:56.905Z,80.89
2018-12-15T19:19:26.300Z,81.57
2018-12-15T19:21:56.036Z,81.11
2018-12-15T19:24:25.667Z,80.43
2018-12-15T19:26:55.221Z,80.05
2018-12-15T19:29:24.688Z,80.31
2018-12-15T19:31:54.603Z,80.02
2018-12-15T19:34:23.931Z,80.13
2018-12-15T19:36:53.823Z,79.88
2018-12-15T19:39:24.438Z,80.27
2018-12-15T19:41:57.824Z,80.38
2018-12-15T19:44:30.026Z,80.13
2018-12-15T19:46:59.564Z,80.12
2018-12-15T19:49:29.465Z,80.44
2018-12-15T19:51:59.303Z,80.41
2018-12-15T19:54:29.405Z,81.02
2018-12-15T19:56:58.943Z,81.70
2018-12-15T19:59:28.767Z,81.16
2018-12-15T20:01:58.227Z,81.00
2018-12-15T20:04:27.806Z,81.32
2018-12-15T20:06:57.511Z,80.85
2018-12-15T20:09:27.158Z,81.38
2018-12-15T20:11:56.791Z,81.77
2018-12-15T20:14:26.396Z,81.11
2018-12-15T20:16:56.011Z,81.29
2018-12-15T20:19:25.380Z,81.03
2018-12-15T20:21:55.008Z,81.22
2018-12-15T20:24:24.515Z,81.01
2018-12-15T20:26:53.814Z,80.39
2018-12-15T20:29:23.276Z,80.71
2018-12-15T20:31:52.736Z,80.93
2018-12-15T20:34:22.255Z,80.70
2018-12-15T20:36:52.071Z,80.52
2018-12-15T20:39:21.659Z,80.30
2018-12-15T20:41:51.468Z,80.30
2018-12-15T20:44:21.111Z,80.30
2018-12-15T20:46:50.787Z,80.29
2018-12-15T20:49:20.306Z,79.68
2018-12-15T20:51:50.355Z,80.35
2018-12-15T20:54:20.197Z,80.01
2018-12-15T20:56:49.964Z,79.73
2018-12-15T20:59:19.547Z,79.77
2018-12-15T21:01:49.352Z,79.39
2018-12-15T21:04:18.856Z,79.15
2018-12-15T21:06:50.702Z,79.23
2018-12-15T21:09:20.226Z,78.25
2018-12-15T21:11:50.181Z,79.09
2018-12-15T21:14:19.772Z,78.71
2018-12-15T21:16:49.572Z,79.75
2018-12-15T21:19:19.323Z,79.62
2018-12-15T21:21:49.598Z,79.06
2018-12-15T21:24:19.462Z,78.91
2018-12-15T21:26:48.934Z,79.45
2018-12-15T21:29:18.756Z,79.36
2018-12-15T21:31:48.949Z,79.01
2018-12-15T21:34:18.855Z,79.16
2018-12-15T21:36:48.554Z,78.74
2018-12-15T21:39:18.571Z,79.39
2018-12-15T21:41:48.203Z,79.17
2018-12-15T21:44:18.908Z,78.69
2018-12-15T21:46:49.488Z,78.46
2018-12-15T21:49:19.099Z,79.19
2018-12-15T21:51:49.214Z,79.23
2018-12-15T21:54:19.033Z,79.15
2018-12-15T21:56:49.309Z,78.58
2018-12-15T21:59:19.940Z,78.77
2018-12-15T22:01:49.501Z,78.81
2018-12-15T22:04:19.832Z,78.33
2018-12-15T22:06:49.485Z,78.80
2018-12-15T22:09:19.259Z,78.79
2018-12-15T22:11:49.164Z,77.96
2018-12-15T22:14:18.657Z,77.73
2018-12-15T22:16:48.076Z,78.33
2018-12-15T22:19:17.553Z,77.69
2018-12-15T22:21:47.665Z,77.43
2018-12-15T22:24:17.481Z,77.54
2018-12-15T22:26:46.939Z,77.57
2018-12-15T22:29:16.453Z,77.09
2018-12-15T22:31:47.012Z,78.17
2018-12-15T22:34:16.517Z,78.14
2018-12-15T22:36:46.047Z,78.51
2018-12-15T22:39:15.724Z,77.79
2018-12-15T22:41:45.154Z,78.03
2018-12-15T22:44:14.568Z,78.98
2018-12-15T22:46:44.450Z,78.92
2018-12-15T22:52:09.936Z,78.76
2018-12-15T22:54:37.150Z,78.43
2018-12-15T22:57:06.697Z,77.85
2018-12-15T22:59:36.375Z,78.11
2018-12-15T23:02:06.638Z,78.36
2018-12-15T23:04:36.248Z,78.58
2018-12-15T23:07:05.999Z,78.32
2018-12-15T23:09:35.858Z,78.98
2018-12-15T23:12:05.397Z,79.08
2018-12-15T23:14:35.049Z,79.44
2018-12-15T23:17:05.095Z,79.05
2018-12-15T23:19:34.594Z,79.45
2018-12-15T23:22:04.252Z,80.12
2018-12-15T23:24:33.819Z,79.88
2018-12-15T23:27:03.556Z,80.23
2018-12-15T23:29:33.214Z,79.77
2018-12-15T23:32:03.168Z,79.70
2018-12-15T23:34:32.829Z,79.45
2018-12-15T23:37:02.613Z,79.30
2018-12-15T23:39:32.317Z,79.52
2018-12-15T23:42:01.968Z,79.97
2018-12-15T23:44:31.466Z,79.81
2018-12-15T23:47:01.409Z,79.48
2018-12-15T23:49:31.159Z,79.38
2018-12-15T23:52:00.714Z,79.80
2018-12-15T23:54:31.187Z,80.18
2018-12-15T23:57:00.594Z,80.44
2018-12-15T23:59:30.149Z,80.07
